sensor_id;sensor_type;location;lat;lon;timestamp;P1;durP1;ratioP1;P2;durP2;ratioP2
51738;SDS011;37815;52.692;6.226;2022-11-15T00:04:53;13.68;;;7.40;;
51738;SDS011;37815;52.692;6.226;2022-11-15T00:09:54;14.88;;;7.53;;
51738;SDS011;37815;52.692;6.226;2022-11-15T00:14:54;13.70;;;7.55;;
51738;SDS011;37815;52.692;6.226;2022-11-15T00:19:55;14.45;;;7.85;;
51738;SDS011;37815;52.692;6.226;2022-11-15T00:24:56;13.68;;;7.85;;
51738;SDS011;37815;52.692;6.226;2022-11-15T00:29:56;15.63;;;8.15;;
51738;SDS011;37815;52.692;6.226;2022-11-15T00:34:57;15.00;;;7.78;;
51738;SDS011;37815;52.692;6.226;2022-11-15T00:39:58;16.55;;;7.60;;
51738;SDS011;37815;52.692;6.226;2022-11-15T00:44:58;15.90;;;7.90;;
51738;SDS011;37815;52.692;6.226;2022-11-15T00:49:59;15.70;;;8.32;;
51738;SDS011;37815;52.692;6.226;2022-11-15T00:55:00;16.55;;;7.70;;
51738;SDS011;37815;52.692;6.226;2022-11-15T01:00:01;17.67;;;8.38;;
51738;SDS011;37815;52.692;6.226;2022-11-15T01:05:02;14.30;;;8.02;;
51738;SDS011;37815;52.692;6.226;2022-11-15T01:10:03;14.77;;;7.60;;
51738;SDS011;37815;52.692;6.226;2022-11-15T01:15:04;15.52;;;7.80;;
51738;SDS011;37815;52.692;6.226;2022-11-15T01:20:05;16.02;;;7.75;;
51738;SDS011;37815;52.692;6.226;2022-11-15T01:25:07;14.55;;;7.43;;
51738;SDS011;37815;52.692;6.226;2022-11-15T01:30:08;16.45;;;8.60;;
51738;SDS011;37815;52.692;6.226;2022-11-15T01:35:09;16.17;;;7.63;;
51738;SDS011;37815;52.692;6.226;2022-11-15T01:40:09;15.55;;;8.50;;
51738;SDS011;37815;52.692;6.226;2022-11-15T01:45:12;16.25;;;7.85;;
51738;SDS011;37815;52.692;6.226;2022-11-15T01:50:16;16.30;;;7.60;;
51738;SDS011;37815;52.692;6.226;2022-11-15T01:55:22;16.55;;;7.90;;
51738;SDS011;37815;52.692;6.226;2022-11-15T02:00:25;14.13;;;7.78;;
51738;SDS011;37815;52.692;6.226;2022-11-15T02:05:25;14.52;;;8.02;;
51738;SDS011;37815;52.692;6.226;2022-11-15T02:10:27;16.73;;;8.15;;
51738;SDS011;37815;52.692;6.226;2022-11-15T02:15:30;17.63;;;8.50;;
51738;SDS011;37815;52.692;6.226;2022-11-15T02:26:50;16.07;;;7.07;;
51738;SDS011;37815;52.692;6.226;2022-11-15T02:31:54;17.55;;;7.95;;
51738;SDS011;37815;52.692;6.226;2022-11-15T02:37:33;17.70;;;8.70;;
51738;SDS011;37815;52.692;6.226;2022-11-15T02:42:36;16.08;;;7.65;;
51738;SDS011;37815;52.692;6.226;2022-11-15T02:48:03;18.83;;;7.77;;
51738;SDS011;37815;52.692;6.226;2022-11-15T02:53:07;18.70;;;8.68;;
51738;SDS011;37815;52.692;6.226;2022-11-15T03:03:28;16.27;;;7.47;;
51738;SDS011;37815;52.692;6.226;2022-11-15T03:19:19;21.88;;;8.90;;
51738;SDS011;37815;52.692;6.226;2022-11-15T03:24:26;16.45;;;8.00;;
51738;SDS011;37815;52.692;6.226;2022-11-15T03:29:34;17.60;;;8.43;;
51738;SDS011;37815;52.692;6.226;2022-11-15T03:34:44;20.20;;;9.27;;
51738;SDS011;37815;52.692;6.226;2022-11-15T03:39:52;20.70;;;9.43;;
51738;SDS011;37815;52.692;6.226;2022-11-15T03:45:02;18.40;;;8.77;;
51738;SDS011;37815;52.692;6.226;2022-11-15T03:50:13;15.23;;;7.60;;
51738;SDS011;37815;52.692;6.226;2022-11-15T03:55:18;19.87;;;9.03;;
51738;SDS011;37815;52.692;6.226;2022-11-15T04:00:20;18.10;;;7.97;;
51738;SDS011;37815;52.692;6.226;2022-11-15T04:05:21;18.90;;;9.02;;
51738;SDS011;37815;52.692;6.226;2022-11-15T04:10:22;16.95;;;7.82;;
51738;SDS011;37815;52.692;6.226;2022-11-15T04:15:23;18.00;;;8.63;;
51738;SDS011;37815;52.692;6.226;2022-11-15T04:20:25;15.63;;;8.73;;
51738;SDS011;37815;52.692;6.226;2022-11-15T04:25:46;18.25;;;8.95;;
51738;SDS011;37815;52.692;6.226;2022-11-15T04:30:51;15.43;;;7.55;;
51738;SDS011;37815;52.692;6.226;2022-11-15T04:35:52;18.33;;;9.35;;
51738;SDS011;37815;52.692;6.226;2022-11-15T04:41:11;20.33;;;9.02;;
51738;SDS011;37815;52.692;6.226;2022-11-15T04:46:12;19.73;;;9.40;;
51738;SDS011;37815;52.692;6.226;2022-11-15T04:51:12;18.73;;;8.77;;
51738;SDS011;37815;52.692;6.226;2022-11-15T04:56:13;24.05;;;9.50;;
51738;SDS011;37815;52.692;6.226;2022-11-15T05:01:14;20.33;;;9.30;;
51738;SDS011;37815;52.692;6.226;2022-11-15T05:06:15;20.50;;;9.82;;
51738;SDS011;37815;52.692;6.226;2022-11-15T05:11:16;18.00;;;8.25;;
51738;SDS011;37815;52.692;6.226;2022-11-15T05:16:17;19.52;;;9.38;;
51738;SDS011;37815;52.692;6.226;2022-11-15T05:21:17;24.25;;;10.50;;
51738;SDS011;37815;52.692;6.226;2022-11-15T05:26:18;22.52;;;9.90;;
51738;SDS011;37815;52.692;6.226;2022-11-15T05:31:19;19.88;;;9.68;;
51738;SDS011;37815;52.692;6.226;2022-11-15T05:36:38;15.70;;;9.00;;
51738;SDS011;37815;52.692;6.226;2022-11-15T05:41:43;20.75;;;9.55;;
51738;SDS011;37815;52.692;6.226;2022-11-15T05:46:49;21.88;;;9.23;;
51738;SDS011;37815;52.692;6.226;2022-11-15T05:51:53;19.42;;;9.05;;
51738;SDS011;37815;52.692;6.226;2022-11-15T05:56:54;18.85;;;9.13;;
51738;SDS011;37815;52.692;6.226;2022-11-15T06:01:56;19.58;;;9.70;;
51738;SDS011;37815;52.692;6.226;2022-11-15T06:06:57;17.98;;;8.82;;
51738;SDS011;37815;52.692;6.226;2022-11-15T06:11:59;21.52;;;9.50;;
51738;SDS011;37815;52.692;6.226;2022-11-15T06:16:59;18.30;;;8.93;;
51738;SDS011;37815;52.692;6.226;2022-11-15T06:22:00;20.15;;;9.23;;
51738;SDS011;37815;52.692;6.226;2022-11-15T06:27:01;16.23;;;8.75;;
51738;SDS011;37815;52.692;6.226;2022-11-15T06:32:02;17.17;;;8.50;;
51738;SDS011;37815;52.692;6.226;2022-11-15T06:37:02;18.05;;;8.68;;
51738;SDS011;37815;52.692;6.226;2022-11-15T06:42:03;16.73;;;7.82;;
51738;SDS011;37815;52.692;6.226;2022-11-15T06:47:04;18.27;;;8.73;;
51738;SDS011;37815;52.692;6.226;2022-11-15T06:52:04;20.88;;;8.68;;
51738;SDS011;37815;52.692;6.226;2022-11-15T06:57:06;15.95;;;8.27;;
51738;SDS011;37815;52.692;6.226;2022-11-15T07:02:10;16.65;;;8.55;;
51738;SDS011;37815;52.692;6.226;2022-11-15T07:07:13;15.73;;;7.88;;
51738;SDS011;37815;52.692;6.226;2022-11-15T07:12:13;17.63;;;8.45;;
51738;SDS011;37815;52.692;6.226;2022-11-15T07:17:14;19.17;;;8.43;;
51738;SDS011;37815;52.692;6.226;2022-11-15T07:22:15;16.30;;;8.23;;
51738;SDS011;37815;52.692;6.226;2022-11-15T07:27:15;15.40;;;8.18;;
51738;SDS011;37815;52.692;6.226;2022-11-15T07:32:16;14.32;;;7.47;;
51738;SDS011;37815;52.692;6.226;2022-11-15T07:37:17;23.40;;;8.68;;
51738;SDS011;37815;52.692;6.226;2022-11-15T07:42:18;17.77;;;8.73;;
51738;SDS011;37815;52.692;6.226;2022-11-15T07:47:37;17.95;;;7.88;;
51738;SDS011;37815;52.692;6.226;2022-11-15T07:52:38;16.30;;;7.93;;
51738;SDS011;37815;52.692;6.226;2022-11-15T07:57:39;17.00;;;8.63;;
51738;SDS011;37815;52.692;6.226;2022-11-15T08:02:39;14.88;;;7.93;;
51738;SDS011;37815;52.692;6.226;2022-11-15T08:07:40;20.65;;;8.40;;
51738;SDS011;37815;52.692;6.226;2022-11-15T08:12:41;17.60;;;7.90;;
51738;SDS011;37815;52.692;6.226;2022-11-15T08:17:42;13.20;;;7.43;;
51738;SDS011;37815;52.692;6.226;2022-11-15T08:22:42;14.95;;;8.43;;
51738;SDS011;37815;52.692;6.226;2022-11-15T08:27:43;14.93;;;8.00;;
51738;SDS011;37815;52.692;6.226;2022-11-15T08:32:44;14.68;;;7.97;;
51738;SDS011;37815;52.692;6.226;2022-11-15T08:37:45;19.00;;;8.23;;
51738;SDS011;37815;52.692;6.226;2022-11-15T08:42:47;18.05;;;8.15;;
51738;SDS011;37815;52.692;6.226;2022-11-15T08:47:47;17.70;;;8.15;;
51738;SDS011;37815;52.692;6.226;2022-11-15T08:52:48;14.82;;;7.53;;
51738;SDS011;37815;52.692;6.226;2022-11-15T08:57:49;15.50;;;8.38;;
51738;SDS011;37815;52.692;6.226;2022-11-15T09:02:49;13.88;;;7.88;;
51738;SDS011;37815;52.692;6.226;2022-11-15T09:07:54;14.85;;;7.80;;
51738;SDS011;37815;52.692;6.226;2022-11-15T09:12:56;14.43;;;8.38;;
51738;SDS011;37815;52.692;6.226;2022-11-15T09:17:58;16.33;;;7.93;;
51738;SDS011;37815;52.692;6.226;2022-11-15T09:23:00;15.90;;;8.60;;
51738;SDS011;37815;52.692;6.226;2022-11-15T09:28:01;15.15;;;8.18;;
51738;SDS011;37815;52.692;6.226;2022-11-15T09:33:07;14.63;;;8.63;;
51738;SDS011;37815;52.692;6.226;2022-11-15T09:38:09;14.45;;;7.60;;
51738;SDS011;37815;52.692;6.226;2022-11-15T09:48:30;14.55;;;7.47;;
51738;SDS011;37815;52.692;6.226;2022-11-15T09:59:33;14.65;;;7.30;;
51738;SDS011;37815;52.692;6.226;2022-11-15T10:04:44;13.10;;;6.93;;
51738;SDS011;37815;52.692;6.226;2022-11-15T10:15:18;14.73;;;7.65;;
51738;SDS011;37815;52.692;6.226;2022-11-15T10:20:25;13.10;;;6.95;;
51738;SDS011;37815;52.692;6.226;2022-11-15T10:25:28;11.88;;;6.78;;
51738;SDS011;37815;52.692;6.226;2022-11-15T10:30:38;11.75;;;7.05;;
51738;SDS011;37815;52.692;6.226;2022-11-15T10:35:40;11.55;;;6.78;;
51738;SDS011;37815;52.692;6.226;2022-11-15T10:40:42;8.85;;;5.53;;
51738;SDS011;37815;52.692;6.226;2022-11-15T10:45:50;11.75;;;6.00;;
51738;SDS011;37815;52.692;6.226;2022-11-15T10:56:52;11.40;;;6.20;;
51738;SDS011;37815;52.692;6.226;2022-11-15T11:02:00;9.18;;;5.53;;
51738;SDS011;37815;52.692;6.226;2022-11-15T11:07:01;8.85;;;5.03;;
51738;SDS011;37815;52.692;6.226;2022-11-15T11:12:03;8.20;;;4.57;;
51738;SDS011;37815;52.692;6.226;2022-11-15T11:17:09;8.32;;;4.90;;
51738;SDS011;37815;52.692;6.226;2022-11-15T11:22:17;9.88;;;5.10;;
51738;SDS011;37815;52.692;6.226;2022-11-15T11:48:49;7.47;;;4.40;;
51738;SDS011;37815;52.692;6.226;2022-11-15T11:54:12;5.60;;;3.60;;
51738;SDS011;37815;52.692;6.226;2022-11-15T11:59:36;6.72;;;3.83;;
51738;SDS011;37815;52.692;6.226;2022-11-15T12:04:43;6.47;;;4.22;;
51738;SDS011;37815;52.692;6.226;2022-11-15T12:09:58;6.43;;;3.45;;
51738;SDS011;37815;52.692;6.226;2022-11-15T12:15:09;5.10;;;3.15;;
51738;SDS011;37815;52.692;6.226;2022-11-15T12:20:21;4.50;;;3.00;;
51738;SDS011;37815;52.692;6.226;2022-11-15T12:25:31;5.68;;;3.38;;
51738;SDS011;37815;52.692;6.226;2022-11-15T12:41:32;5.18;;;2.80;;
51738;SDS011;37815;52.692;6.226;2022-11-15T12:56:42;3.63;;;2.22;;
51738;SDS011;37815;52.692;6.226;2022-11-15T13:12:04;3.60;;;2.50;;
51738;SDS011;37815;52.692;6.226;2022-11-15T13:17:55;3.15;;;1.90;;
51738;SDS011;37815;52.692;6.226;2022-11-15T13:23:09;4.70;;;2.08;;
51738;SDS011;37815;52.692;6.226;2022-11-15T13:43:29;3.42;;;1.73;;
51738;SDS011;37815;52.692;6.226;2022-11-15T13:48:35;3.08;;;2.00;;
51738;SDS011;37815;52.692;6.226;2022-11-15T13:53:36;4.68;;;1.80;;
51738;SDS011;37815;52.692;6.226;2022-11-15T13:58:41;2.80;;;1.77;;
51738;SDS011;37815;52.692;6.226;2022-11-15T14:03:46;4.07;;;1.67;;
51738;SDS011;37815;52.692;6.226;2022-11-15T14:19:10;1.35;;;1.15;;
51738;SDS011;37815;52.692;6.226;2022-11-15T14:24:22;2.03;;;1.42;;
51738;SDS011;37815;52.692;6.226;2022-11-15T14:29:29;1.45;;;1.17;;
51738;SDS011;37815;52.692;6.226;2022-11-15T14:34:31;2.67;;;1.20;;
51738;SDS011;37815;52.692;6.226;2022-11-15T14:39:32;3.35;;;1.05;;
51738;SDS011;37815;52.692;6.226;2022-11-15T14:44:33;1.55;;;1.30;;
51738;SDS011;37815;52.692;6.226;2022-11-15T14:49:34;1.15;;;1.05;;
51738;SDS011;37815;52.692;6.226;2022-11-15T14:54:35;1.98;;;1.00;;
51738;SDS011;37815;52.692;6.226;2022-11-15T14:59:35;2.17;;;1.08;;
51738;SDS011;37815;52.692;6.226;2022-11-15T15:04:36;1.50;;;1.20;;
51738;SDS011;37815;52.692;6.226;2022-11-15T15:09:37;1.65;;;1.10;;
51738;SDS011;37815;52.692;6.226;2022-11-15T15:14:38;2.30;;;1.10;;
51738;SDS011;37815;52.692;6.226;2022-11-15T15:19:38;2.17;;;0.98;;
51738;SDS011;37815;52.692;6.226;2022-11-15T15:24:39;2.70;;;1.20;;
51738;SDS011;37815;52.692;6.226;2022-11-15T15:29:40;1.65;;;1.25;;
51738;SDS011;37815;52.692;6.226;2022-11-15T15:34:41;2.13;;;1.40;;
51738;SDS011;37815;52.692;6.226;2022-11-15T15:39:41;3.03;;;1.63;;
51738;SDS011;37815;52.692;6.226;2022-11-15T15:44:42;2.63;;;1.58;;
51738;SDS011;37815;52.692;6.226;2022-11-15T15:49:43;3.33;;;1.73;;
51738;SDS011;37815;52.692;6.226;2022-11-15T15:54:43;3.03;;;1.35;;
51738;SDS011;37815;52.692;6.226;2022-11-15T15:59:44;3.03;;;1.70;;
51738;SDS011;37815;52.692;6.226;2022-11-15T16:04:45;2.58;;;1.67;;
51738;SDS011;37815;52.692;6.226;2022-11-15T16:09:46;3.15;;;1.30;;
51738;SDS011;37815;52.692;6.226;2022-11-15T16:15:01;3.55;;;1.88;;
51738;SDS011;37815;52.692;6.226;2022-11-15T16:20:03;3.05;;;1.63;;
51738;SDS011;37815;52.692;6.226;2022-11-15T16:25:04;3.25;;;1.83;;
51738;SDS011;37815;52.692;6.226;2022-11-15T16:30:07;2.40;;;1.63;;
51738;SDS011;37815;52.692;6.226;2022-11-15T16:35:17;2.22;;;1.70;;
51738;SDS011;37815;52.692;6.226;2022-11-15T16:40:28;3.58;;;1.70;;
51738;SDS011;37815;52.692;6.226;2022-11-15T16:45:33;3.22;;;1.83;;
51738;SDS011;37815;52.692;6.226;2022-11-15T16:50:34;2.33;;;1.52;;
51738;SDS011;37815;52.692;6.226;2022-11-15T16:55:42;2.50;;;1.58;;
51738;SDS011;37815;52.692;6.226;2022-11-15T17:00:42;2.00;;;1.38;;
51738;SDS011;37815;52.692;6.226;2022-11-15T17:05:43;2.95;;;1.55;;
51738;SDS011;37815;52.692;6.226;2022-11-15T17:10:44;2.75;;;1.60;;
51738;SDS011;37815;52.692;6.226;2022-11-15T17:15:44;2.15;;;1.75;;
51738;SDS011;37815;52.692;6.226;2022-11-15T17:20:45;3.15;;;1.63;;
51738;SDS011;37815;52.692;6.226;2022-11-15T17:25:46;2.58;;;1.45;;
51738;SDS011;37815;52.692;6.226;2022-11-15T17:30:46;3.13;;;1.40;;
51738;SDS011;37815;52.692;6.226;2022-11-15T17:35:57;3.35;;;1.40;;
51738;SDS011;37815;52.692;6.226;2022-11-15T17:41:06;2.00;;;1.33;;
51738;SDS011;37815;52.692;6.226;2022-11-15T17:46:13;3.45;;;1.63;;
51738;SDS011;37815;52.692;6.226;2022-11-15T17:51:17;1.70;;;1.20;;
51738;SDS011;37815;52.692;6.226;2022-11-15T17:56:19;4.05;;;1.40;;
51738;SDS011;37815;52.692;6.226;2022-11-15T18:01:24;2.88;;;1.33;;
51738;SDS011;37815;52.692;6.226;2022-11-15T18:06:30;3.95;;;1.20;;
51738;SDS011;37815;52.692;6.226;2022-11-15T18:11:34;2.38;;;1.10;;
51738;SDS011;37815;52.692;6.226;2022-11-15T18:16:40;2.33;;;1.30;;
51738;SDS011;37815;52.692;6.226;2022-11-15T18:21:42;1.92;;;1.27;;
51738;SDS011;37815;52.692;6.226;2022-11-15T18:26:55;3.30;;;1.15;;
51738;SDS011;37815;52.692;6.226;2022-11-15T18:31:57;3.65;;;1.30;;
51738;SDS011;37815;52.692;6.226;2022-11-15T18:36:58;3.53;;;1.27;;
51738;SDS011;37815;52.692;6.226;2022-11-15T18:42:00;2.13;;;1.00;;
51738;SDS011;37815;52.692;6.226;2022-11-15T18:47:01;3.70;;;1.40;;
51738;SDS011;37815;52.692;6.226;2022-11-15T18:52:02;4.28;;;1.55;;
51738;SDS011;37815;52.692;6.226;2022-11-15T18:57:02;1.98;;;1.13;;
51738;SDS011;37815;52.692;6.226;2022-11-15T19:02:03;3.58;;;1.30;;
51738;SDS011;37815;52.692;6.226;2022-11-15T19:07:04;2.75;;;1.50;;
51738;SDS011;37815;52.692;6.226;2022-11-15T19:12:05;1.95;;;1.30;;
51738;SDS011;37815;52.692;6.226;2022-11-15T19:17:06;2.42;;;1.48;;
51738;SDS011;37815;52.692;6.226;2022-11-15T19:22:06;1.67;;;1.00;;
51738;SDS011;37815;52.692;6.226;2022-11-15T19:27:07;1.77;;;1.13;;
51738;SDS011;37815;52.692;6.226;2022-11-15T19:32:08;1.75;;;1.20;;
51738;SDS011;37815;52.692;6.226;2022-11-15T19:37:09;2.78;;;1.50;;
51738;SDS011;37815;52.692;6.226;2022-11-15T19:42:09;2.88;;;1.40;;
51738;SDS011;37815;52.692;6.226;2022-11-15T19:47:10;5.57;;;1.42;;
51738;SDS011;37815;52.692;6.226;2022-11-15T19:52:11;2.42;;;1.38;;
51738;SDS011;37815;52.692;6.226;2022-11-15T19:57:12;2.42;;;1.40;;
51738;SDS011;37815;52.692;6.226;2022-11-15T20:02:12;3.05;;;1.52;;
51738;SDS011;37815;52.692;6.226;2022-11-15T20:07:13;3.13;;;1.67;;
51738;SDS011;37815;52.692;6.226;2022-11-15T20:12:14;2.35;;;1.20;;
51738;SDS011;37815;52.692;6.226;2022-11-15T20:17:14;2.75;;;1.50;;
51738;SDS011;37815;52.692;6.226;2022-11-15T20:22:15;3.72;;;1.50;;
51738;SDS011;37815;52.692;6.226;2022-11-15T20:27:16;2.67;;;1.40;;
51738;SDS011;37815;52.692;6.226;2022-11-15T20:32:17;2.63;;;1.67;;
51738;SDS011;37815;52.692;6.226;2022-11-15T20:37:18;4.05;;;1.90;;
51738;SDS011;37815;52.692;6.226;2022-11-15T20:42:19;2.40;;;1.63;;
51738;SDS011;37815;52.692;6.226;2022-11-15T20:47:20;3.58;;;1.58;;
51738;SDS011;37815;52.692;6.226;2022-11-15T20:52:21;2.33;;;1.13;;
51738;SDS011;37815;52.692;6.226;2022-11-15T20:57:21;4.00;;;1.63;;
51738;SDS011;37815;52.692;6.226;2022-11-15T21:02:22;2.28;;;1.70;;
51738;SDS011;37815;52.692;6.226;2022-11-15T21:07:23;3.22;;;1.52;;
51738;SDS011;37815;52.692;6.226;2022-11-15T21:12:24;3.75;;;1.42;;
51738;SDS011;37815;52.692;6.226;2022-11-15T21:17:25;2.85;;;1.50;;
51738;SDS011;37815;52.692;6.226;2022-11-15T21:22:25;2.72;;;1.52;;
51738;SDS011;37815;52.692;6.226;2022-11-15T21:27:26;2.55;;;1.80;;
51738;SDS011;37815;52.692;6.226;2022-11-15T21:32:27;3.72;;;2.65;;
51738;SDS011;37815;52.692;6.226;2022-11-15T21:37:28;3.10;;;1.92;;
51738;SDS011;37815;52.692;6.226;2022-11-15T21:42:29;2.05;;;1.70;;
51738;SDS011;37815;52.692;6.226;2022-11-15T21:47:30;3.92;;;1.88;;
51738;SDS011;37815;52.692;6.226;2022-11-15T21:52:30;2.58;;;1.70;;
51738;SDS011;37815;52.692;6.226;2022-11-15T21:57:31;4.75;;;2.08;;
51738;SDS011;37815;52.692;6.226;2022-11-15T22:02:32;2.88;;;1.80;;
51738;SDS011;37815;52.692;6.226;2022-11-15T22:07:33;3.40;;;1.95;;
51738;SDS011;37815;52.692;6.226;2022-11-15T22:12:33;4.65;;;2.22;;
51738;SDS011;37815;52.692;6.226;2022-11-15T22:17:35;2.75;;;2.05;;
51738;SDS011;37815;52.692;6.226;2022-11-15T22:22:56;4.90;;;2.13;;
51738;SDS011;37815;52.692;6.226;2022-11-15T22:27:57;3.15;;;2.00;;
51738;SDS011;37815;52.692;6.226;2022-11-15T22:32:58;4.60;;;2.20;;
51738;SDS011;37815;52.692;6.226;2022-11-15T22:37:58;4.65;;;2.38;;
51738;SDS011;37815;52.692;6.226;2022-11-15T22:42:59;2.97;;;2.33;;
51738;SDS011;37815;52.692;6.226;2022-11-15T22:48:00;4.35;;;2.28;;
51738;SDS011;37815;52.692;6.226;2022-11-15T22:53:00;3.45;;;2.30;;
51738;SDS011;37815;52.692;6.226;2022-11-15T22:58:01;2.78;;;1.98;;
51738;SDS011;37815;52.692;6.226;2022-11-15T23:03:02;4.43;;;2.38;;
51738;SDS011;37815;52.692;6.226;2022-11-15T23:08:02;5.90;;;2.47;;
51738;SDS011;37815;52.692;6.226;2022-11-15T23:13:04;3.95;;;2.83;;
51738;SDS011;37815;52.692;6.226;2022-11-15T23:18:15;5.05;;;2.88;;
51738;SDS011;37815;52.692;6.226;2022-11-15T23:23:16;3.97;;;2.58;;
51738;SDS011;37815;52.692;6.226;2022-11-15T23:28:16;4.85;;;3.10;;
51738;SDS011;37815;52.692;6.226;2022-11-15T23:33:17;4.57;;;2.65;;
51738;SDS011;37815;52.692;6.226;2022-11-15T23:38:37;3.88;;;2.60;;
51738;SDS011;37815;52.692;6.226;2022-11-15T23:43:42;5.28;;;3.33;;
51738;SDS011;37815;52.692;6.226;2022-11-15T23:48:43;5.28;;;3.03;;
51738;SDS011;37815;52.692;6.226;2022-11-15T23:53:44;6.07;;;2.92;;
51738;SDS011;37815;52.692;6.226;2022-11-15T23:58:45;4.80;;;2.70;;
